Time;durP1;ratioP1;P1;durP2;ratioP2;P2;SDS_P1;SDS_P2;PMS_P1;PMS_P2;Temp;Humidity;BMP_temperature;BMP_pressure;BME280_temperature;BME280_humidity;BME280_pressure;Samples;Min_cycle;Max_cycle;Signal;HPM_P1;HPM_P2
2022/11/19 00:00:45;;;;;;;7.43;4.50;;;1.40;99.90;;;;;;4895337;29;20047;-51
2022/11/19 00:03:13;;;;;;;4.63;3.95;;;1.30;99.90;;;;;;4914628;29;20048;-50
2022/11/19 00:05:47;;;;;;;5.38;4.28;;;1.30;99.90;;;;;;4913967;29;20051;-49
2022/11/19 00:08:18;;;;;;;6.88;4.55;;;1.20;99.90;;;;;;4912626;29;20126;-53
2022/11/19 00:10:45;;;;;;;5.28;4.10;;;1.20;99.90;;;;;;4912966;29;21071;-52
2022/11/19 00:13:13;;;;;;;6.25;4.57;;;1.20;99.90;;;;;;4911516;29;20043;-53
2022/11/19 00:15:39;;;;;;;6.60;4.05;;;1.20;99.90;;;;;;4912880;29;20187;-52
2022/11/19 00:18:06;;;;;;;5.85;4.47;;;1.10;99.90;;;;;;4912027;29;20075;-54
2022/11/19 00:20:33;;;;;;;5.57;4.15;;;1.10;99.90;;;;;;4901814;29;20552;-53
2022/11/19 00:22:59;;;;;;;5.28;4.40;;;1.10;99.90;;;;;;4899179;29;20912;-51
2022/11/19 00:25:27;;;;;;;6.55;4.40;;;1.00;99.90;;;;;;4913919;29;20048;-52
2022/11/19 00:27:55;;;;;;;6.28;4.68;;;1.00;99.90;;;;;;4913316;29;20044;-53
2022/11/19 00:30:21;;;;;;;6.70;4.60;;;0.90;99.90;;;;;;4912892;29;20761;-52
2022/11/19 00:32:46;;;;;;;5.55;4.20;;;0.90;99.90;;;;;;4914929;29;20044;-49
2022/11/19 00:35:13;;;;;;;5.95;4.20;;;0.90;99.90;;;;;;4942546;28;20131;-51
2022/11/19 00:37:39;;;;;;;6.57;4.63;;;0.90;99.90;;;;;;4932830;28;20162;-50
2022/11/19 00:40:07;;;;;;;5.93;4.45;;;0.80;99.90;;;;;;4932327;28;20134;-54
2022/11/19 00:42:36;;;;;;;6.25;4.40;;;0.80;99.90;;;;;;4932475;29;20507;-52
2022/11/19 00:45:02;;;;;;;6.20;4.90;;;0.80;99.90;;;;;;4930334;29;20146;-52
2022/11/19 00:47:28;;;;;;;5.57;4.28;;;0.70;99.90;;;;;;4933489;28;20122;-50
2022/11/19 00:49:53;;;;;;;6.03;4.40;;;0.70;99.90;;;;;;4933742;28;20058;-52
2022/11/19 00:52:19;;;;;;;8.50;4.75;;;0.70;99.90;;;;;;4930801;28;20039;-50
2022/11/19 00:54:45;;;;;;;5.97;4.63;;;0.70;99.90;;;;;;4933263;29;20067;-51
2022/11/19 00:57:10;;;;;;;7.40;4.75;;;0.60;99.90;;;;;;4930261;29;20055;-52
2022/11/19 00:59:39;;;;;;;7.32;4.97;;;0.60;99.90;;;;;;4930416;29;20048;-54
2022/11/19 01:02:05;;;;;;;6.60;5.03;;;0.60;99.90;;;;;;4934203;28;20055;-53
2022/11/19 01:04:31;;;;;;;6.75;5.40;;;0.50;99.90;;;;;;4932785;28;20111;-53
2022/11/19 01:06:57;;;;;;;6.35;4.75;;;0.50;99.90;;;;;;4929185;28;20202;-54
2022/11/19 01:09:23;;;;;;;6.63;4.88;;;0.50;99.90;;;;;;4941384;28;20155;-54
2022/11/19 01:11:49;;;;;;;6.93;5.18;;;0.50;99.90;;;;;;4929406;29;20482;-54
2022/11/19 01:14:15;;;;;;;5.97;4.78;;;0.50;99.90;;;;;;4931577;29;20106;-48
2022/11/19 01:16:41;;;;;;;6.78;5.20;;;0.40;99.90;;;;;;4928363;28;20054;-52
2022/11/19 01:19:09;;;;;;;5.85;4.82;;;0.40;99.90;;;;;;4929004;28;20487;-51
2022/11/19 01:21:36;;;;;;;6.22;4.65;;;0.40;99.90;;;;;;4929890;29;20494;-51
2022/11/19 01:24:03;;;;;;;7.07;5.03;;;0.40;99.90;;;;;;4932641;29;20505;-53
2022/11/19 01:26:29;;;;;;;6.90;5.30;;;0.30;99.90;;;;;;4931198;29;20050;-52
2022/11/19 01:28:55;;;;;;;6.63;5.03;;;0.30;99.90;;;;;;4930479;28;20136;-50
2022/11/19 01:31:24;;;;;;;7.68;5.28;;;0.30;99.90;;;;;;4934024;28;20127;-51
2022/11/19 01:33:51;;;;;;;7.78;5.43;;;0.30;99.90;;;;;;4926184;29;20048;-50
2022/11/19 01:36:23;;;;;;;7.85;5.63;;;0.30;99.90;;;;;;4916256;29;20119;-52
2022/11/19 01:38:49;;;;;;;7.05;5.32;;;0.30;99.90;;;;;;4913615;29;20059;-51
2022/11/19 01:41:20;;;;;;;6.97;5.20;;;0.30;99.90;;;;;;4903199;29;20147;-53
2022/11/19 01:43:58;;;;;;;7.57;5.13;;;0.30;99.90;;;;;;4917124;29;20067;-51
2022/11/19 01:46:29;;;;;;;9.00;5.47;;;0.30;99.90;;;;;;4918915;29;20104;-49
2022/11/19 01:49:21;;;;;;;8.07;5.75;;;0.30;99.90;;;;;;4910860;29;20048;-49
2022/11/19 01:51:59;;;;;;;7.85;5.40;;;0.30;99.90;;;;;;4911893;29;20047;-50
2022/11/19 01:54:33;;;;;;;7.53;4.88;;;0.20;99.90;;;;;;4917630;29;20048;-51
2022/11/19 01:57:05;;;;;;;6.53;5.53;;;0.20;99.90;;;;;;4913599;29;20066;-51
2022/11/19 01:59:31;;;;;;;8.05;5.70;;;0.20;99.90;;;;;;4914325;29;20048;-52
2022/11/19 02:01:58;;;;;;;6.75;5.72;;;0.20;99.90;;;;;;4914480;29;20142;-51
2022/11/19 02:04:25;;;;;;;7.30;5.40;;;0.20;99.90;;;;;;4907151;29;20490;-53
2022/11/19 02:06:52;;;;;;;7.95;5.70;;;0.10;99.90;;;;;;4911791;29;20052;-49
2022/11/19 02:09:18;;;;;;;9.93;5.50;;;0.10;99.90;;;;;;4911975;29;20075;-54
2022/11/19 02:11:56;;;;;;;10.77;5.68;;;0.10;99.90;;;;;;4915082;29;20120;-50
2022/11/19 02:14:43;;;;;;;7.35;5.63;;;0.10;99.90;;;;;;4915066;29;20058;-53
2022/11/19 02:17:35;;;;;;;8.43;6.03;;;0.00;99.90;;;;;;4912661;29;20534;-52
2022/11/19 02:20:25;;;;;;;8.30;5.80;;;0.00;99.90;;;;;;4882825;29;20407;-51
2022/11/19 02:23:21;;;;;;;8.40;5.75;;;0.00;99.90;;;;;;4903969;29;20056;-49
2022/11/19 02:26:04;;;;;;;7.63;5.78;;;0.00;99.90;;;;;;4913917;29;20062;-50
2022/11/19 02:28:48;;;;;;;8.43;5.95;;;-0.10;99.90;;;;;;4916997;29;20462;-49
2022/11/19 02:31:43;;;;;;;8.30;5.43;;;-0.10;99.90;;;;;;4914248;29;20063;-51
2022/11/19 02:34:29;;;;;;;8.90;5.93;;;-0.10;99.90;;;;;;4913880;29;20052;-50
2022/11/19 02:37:11;;;;;;;7.80;5.90;;;-0.20;99.90;;;;;;4917088;29;20044;-51
2022/11/19 02:40:08;;;;;;;8.17;6.07;;;-0.10;99.90;;;;;;4917979;29;20043;-52
2022/11/19 02:42:49;;;;;;;9.82;6.50;;;-0.10;99.90;;;;;;4913825;29;20302;-51
2022/11/19 02:45:33;;;;;;;8.63;6.28;;;-0.30;99.90;;;;;;4896448;29;20055;-51
2022/11/19 02:48:06;;;;;;;8.93;5.90;;;-0.30;99.90;;;;;;4915446;29;20179;-51
2022/11/19 02:50:38;;;;;;;9.25;6.13;;;-0.40;99.90;;;;;;4915406;29;20795;-51
2022/11/19 02:53:04;;;;;;;9.43;6.60;;;-0.40;99.90;;;;;;4913058;29;20044;-49
2022/11/19 02:55:30;;;;;;;9.30;6.50;;;-0.40;99.90;;;;;;4916673;29;20056;-52
2022/11/19 03:06:40;;;;;;;9.40;6.18;;;-0.60;99.90;;;;;;4915553;29;20048;-50
2022/11/19 03:09:06;;;;;;;8.88;6.03;;;-0.60;99.90;;;;;;4913933;29;20048;-51
2022/11/19 03:11:32;;;;;;;9.93;6.05;;;-0.60;99.90;;;;;;4914871;29;20522;-50
2022/11/19 03:16:57;;;;;;;8.32;6.15;;;-0.60;99.90;;;;;;4913446;29;20131;-53
2022/11/19 03:19:35;;;;;;;9.35;6.10;;;-0.60;99.90;;;;;;4914975;29;20055;-53
2022/11/19 03:22:04;;;;;;;8.70;5.82;;;-0.60;99.90;;;;;;4914073;29;20073;-48
2022/11/19 03:24:36;;;;;;;7.63;5.43;;;-0.70;99.90;;;;;;4913576;29;20051;-50
2022/11/19 03:27:07;;;;;;;8.57;5.63;;;-0.70;99.90;;;;;;4913696;29;20052;-49
2022/11/19 03:29:37;;;;;;;7.88;5.55;;;-0.70;99.90;;;;;;4887937;29;20546;-52
2022/11/19 03:32:12;;;;;;;8.80;6.38;;;-0.70;99.90;;;;;;4912787;29;20138;-48
2022/11/19 03:34:40;;;;;;;9.13;6.10;;;-0.70;99.90;;;;;;4917150;29;20142;-54
2022/11/19 03:37:08;;;;;;;9.50;6.30;;;-0.70;99.90;;;;;;4914156;29;20048;-51
2022/11/19 03:39:36;;;;;;;9.02;5.82;;;-0.70;99.90;;;;;;4914364;29;20476;-53
2022/11/19 03:42:08;;;;;;;10.20;6.30;;;-0.80;99.90;;;;;;4915581;29;20142;-54
2022/11/19 03:44:49;;;;;;;7.40;5.70;;;-0.80;99.90;;;;;;4915205;29;20052;-51
2022/11/19 03:47:19;;;;;;;7.95;5.60;;;-0.80;99.90;;;;;;4913548;29;20117;-53
2022/11/19 03:49:47;;;;;;;8.80;6.15;;;-0.80;99.90;;;;;;4915233;29;20517;-52
2022/11/19 03:52:17;;;;;;;9.25;6.20;;;-0.80;99.90;;;;;;4916290;29;20541;-50
2022/11/19 03:54:43;;;;;;;9.32;5.68;;;-0.90;99.90;;;;;;4917943;29;20039;-51
2022/11/19 03:57:16;;;;;;;8.35;5.95;;;-0.90;99.90;;;;;;4916624;29;20399;-53
2022/11/19 03:59:41;;;;;;;8.30;5.97;;;-0.90;99.90;;;;;;4917634;29;20052;-53
2022/11/19 04:02:09;;;;;;;9.07;5.78;;;-0.90;99.90;;;;;;4916264;29;20984;-54
2022/11/19 04:04:38;;;;;;;8.95;5.95;;;-1.00;99.90;;;;;;4901494;29;20550;-48
2022/11/19 04:07:09;;;;;;;9.05;6.40;;;-1.00;99.90;;;;;;4916599;29;20099;-51
2022/11/19 04:09:36;;;;;;;13.93;6.55;;;-1.00;99.90;;;;;;4916567;29;20051;-51
2022/11/19 04:12:03;;;;;;;9.50;6.22;;;-1.00;99.90;;;;;;4908200;29;20059;-53
2022/11/19 04:14:29;;;;;;;9.48;6.88;;;-1.10;99.90;;;;;;4916415;29;20079;-52
2022/11/19 04:16:55;;;;;;;9.95;6.40;;;-1.10;99.90;;;;;;4907156;29;20180;-50
2022/11/19 04:19:21;;;;;;;9.68;6.22;;;-1.10;99.90;;;;;;4915404;29;20059;-51
2022/11/19 04:21:47;;;;;;;9.55;6.53;;;-1.10;99.90;;;;;;4915975;29;20814;-52
2022/11/19 04:24:14;;;;;;;11.57;6.43;;;-1.10;99.90;;;;;;4916851;29;20098;-53
2022/11/19 04:26:39;;;;;;;8.68;6.20;;;-1.20;99.90;;;;;;4916573;29;20047;-54
2022/11/19 04:29:05;;;;;;;9.57;6.75;;;-1.20;99.90;;;;;;4914965;29;20059;-52
2022/11/19 04:31:32;;;;;;;9.95;6.18;;;-1.20;99.90;;;;;;4915775;29;20089;-52
2022/11/19 04:33:58;;;;;;;9.40;6.20;;;-1.20;99.90;;;;;;4914905;29;20064;-52
2022/11/19 04:36:23;;;;;;;9.50;6.32;;;-1.30;99.90;;;;;;4917842;29;20052;-52
2022/11/19 04:38:49;;;;;;;7.85;5.55;;;-1.30;99.90;;;;;;4915795;29;20047;-53
2022/11/19 04:41:15;;;;;;;8.85;6.55;;;-1.30;99.90;;;;;;4903451;29;20463;-52
2022/11/19 04:43:41;;;;;;;9.95;6.55;;;-1.30;99.90;;;;;;4914312;29;20060;-52
2022/11/19 04:46:06;;;;;;;9.73;6.63;;;-1.30;99.90;;;;;;4916086;29;20403;-50
2022/11/19 04:48:32;;;;;;;9.60;6.07;;;-1.30;99.90;;;;;;4903082;29;20596;-53
2022/11/19 04:50:58;;;;;;;9.82;6.40;;;-1.30;99.90;;;;;;4913729;29;20051;-52
2022/11/19 04:53:24;;;;;;;9.45;6.40;;;-1.30;99.90;;;;;;4912880;29;20047;-50
2022/11/19 04:55:49;;;;;;;8.50;5.97;;;-1.30;99.90;;;;;;4913379;29;20035;-52
2022/11/19 04:58:15;;;;;;;8.40;5.90;;;-1.30;99.90;;;;;;4910898;29;20043;-54
2022/11/19 05:00:41;;;;;;;8.70;6.38;;;-1.30;99.90;;;;;;4899712;29;20044;-53
2022/11/19 05:03:07;;;;;;;9.27;6.22;;;-1.40;99.90;;;;;;4911903;29;20079;-52
2022/11/19 05:05:33;;;;;;;9.35;6.55;;;-1.40;99.90;;;;;;4910848;29;20047;-50
2022/11/19 05:07:59;;;;;;;9.07;6.28;;;-1.40;99.90;;;;;;4915751;29;20040;-53
2022/11/19 05:10:24;;;;;;;8.75;6.53;;;-1.40;99.90;;;;;;4910303;29;20123;-53
2022/11/19 05:12:50;;;;;;;8.88;5.95;;;-1.40;99.90;;;;;;4914878;29;20198;-54
2022/11/19 05:15:16;;;;;;;8.57;6.10;;;-1.40;99.90;;;;;;4913903;29;20071;-50
2022/11/19 05:17:43;;;;;;;9.85;6.10;;;-1.40;99.90;;;;;;4896657;29;20052;-51
2022/11/19 05:20:09;;;;;;;9.65;6.43;;;-1.40;99.90;;;;;;4914043;29;20047;-53
2022/11/19 05:22:34;;;;;;;8.75;6.15;;;-1.40;99.90;;;;;;4901423;29;20052;-52
2022/11/19 05:25:00;;;;;;;9.30;6.22;;;-1.40;99.90;;;;;;4911412;29;20052;-54
2022/11/19 05:27:26;;;;;;;10.77;6.88;;;-1.40;99.90;;;;;;4914624;29;20047;-55
2022/11/19 05:29:52;;;;;;;8.75;6.10;;;-1.40;99.90;;;;;;4914603;29;20048;-52
2022/11/19 05:32:18;;;;;;;7.70;5.95;;;-1.40;99.90;;;;;;4907147;29;20051;-51
2022/11/19 05:34:43;;;;;;;8.32;6.38;;;-1.40;99.90;;;;;;4918245;29;20313;-51
2022/11/19 05:37:09;;;;;;;10.05;6.78;;;-1.50;99.90;;;;;;4935572;29;20087;-53
2022/11/19 05:39:35;;;;;;;10.18;7.05;;;-1.50;99.90;;;;;;4933762;29;20055;-52
2022/11/19 05:42:01;;;;;;;9.07;6.40;;;-1.50;99.90;;;;;;4934745;29;20846;-52
2022/11/19 05:44:26;;;;;;;9.63;6.53;;;-1.50;99.90;;;;;;4931985;29;20727;-53
2022/11/19 05:46:52;;;;;;;10.30;7.00;;;-1.50;99.90;;;;;;4933675;28;20044;-54
2022/11/19 05:49:18;;;;;;;8.77;6.35;;;-1.50;99.90;;;;;;4928920;29;20059;-54
2022/11/19 05:51:45;;;;;;;9.10;6.18;;;-1.50;99.90;;;;;;4942499;29;20406;-52
2022/11/19 05:54:11;;;;;;;9.07;6.05;;;-1.50;99.90;;;;;;4932159;28;20054;-54
2022/11/19 05:56:38;;;;;;;11.32;6.90;;;-1.50;99.90;;;;;;4931865;29;20047;-52
2022/11/19 05:59:03;;;;;;;10.77;6.65;;;-1.50;99.90;;;;;;4920780;29;20091;-54
2022/11/19 06:01:29;;;;;;;9.43;5.95;;;-1.40;99.90;;;;;;4928478;28;20182;-52
2022/11/19 06:03:56;;;;;;;9.43;6.75;;;-1.50;99.90;;;;;;4932238;29;20047;-53
2022/11/19 06:06:22;;;;;;;11.93;6.38;;;-1.60;99.90;;;;;;4934152;28;20094;-52
2022/11/19 06:08:48;;;;;;;9.45;6.25;;;-1.60;99.90;;;;;;4929502;28;20133;-51
2022/11/19 06:13:59;;;;;;;10.30;6.40;;;-1.50;99.90;;;;;;4930971;28;20047;-53
2022/11/19 06:16:25;;;;;;;12.32;7.03;;;-1.50;99.90;;;;;;4929855;28;20132;-53
2022/11/19 06:18:51;;;;;;;10.77;6.68;;;-1.60;99.90;;;;;;4927871;29;20043;-52
2022/11/19 06:21:17;;;;;;;9.38;6.57;;;-1.60;99.90;;;;;;4930591;28;20039;-55
2022/11/19 06:23:42;;;;;;;9.25;6.63;;;-1.60;99.90;;;;;;4932931;29;20083;-51
2022/11/19 06:26:09;;;;;;;10.20;6.70;;;-1.60;99.90;;;;;;4928016;28;20082;-53
2022/11/19 06:28:35;;;;;;;8.98;6.55;;;-1.60;99.90;;;;;;4936822;29;20035;-54
2022/11/19 06:31:01;;;;;;;8.60;6.20;;;-1.60;99.90;;;;;;4929562;28;20518;-51
2022/11/19 06:33:27;;;;;;;9.90;6.60;;;-1.60;99.90;;;;;;4933912;28;20126;-54
2022/11/19 06:35:53;;;;;;;10.75;6.60;;;-1.60;99.90;;;;;;4929260;28;20414;-53
2022/11/19 06:38:19;;;;;;;10.52;6.65;;;-1.60;99.90;;;;;;4934068;28;20054;-53
2022/11/19 06:40:45;;;;;;;8.23;6.10;;;-1.60;99.90;;;;;;4934978;29;20046;-53
2022/11/19 06:43:11;;;;;;;8.73;6.32;;;-1.60;99.90;;;;;;4933568;28;20287;-52
2022/11/19 06:45:37;;;;;;;10.27;6.60;;;-1.70;99.90;;;;;;4927933;28;20158;-51
2022/11/19 06:48:03;;;;;;;8.23;6.35;;;-1.70;99.90;;;;;;4930823;28;20051;-52
2022/11/19 06:50:30;;;;;;;9.45;6.53;;;-1.70;99.90;;;;;;4926353;28;20110;-52
2022/11/19 06:52:56;;;;;;;11.98;6.80;;;-1.70;99.90;;;;;;4926698;28;20050;-52
2022/11/19 06:55:21;;;;;;;7.68;5.93;;;-1.70;99.90;;;;;;4928902;28;20048;-52
2022/11/19 06:57:48;;;;;;;9.23;6.40;;;-1.70;99.90;;;;;;4936218;28;20047;-53
2022/11/19 07:00:14;;;;;;;8.05;6.28;;;-1.70;99.90;;;;;;4925911;28;20043;-52
2022/11/19 07:02:40;;;;;;;9.35;6.25;;;-1.70;99.90;;;;;;4928439;28;20398;-53
2022/11/19 07:05:07;;;;;;;11.55;6.13;;;-1.70;99.90;;;;;;4926177;28;20055;-53
2022/11/19 07:07:33;;;;;;;10.98;6.50;;;-1.70;99.90;;;;;;4930585;28;20133;-52
2022/11/19 07:09:59;;;;;;;9.35;6.57;;;-1.70;99.90;;;;;;4929360;28;20057;-52
2022/11/19 07:12:25;;;;;;;9.55;6.85;;;-1.70;99.90;;;;;;4930965;28;20426;-53
2022/11/19 07:14:52;;;;;;;9.85;6.55;;;-1.70;99.90;;;;;;4929767;28;20406;-54
2022/11/19 07:17:17;;;;;;;9.38;6.40;;;-1.70;99.90;;;;;;4929955;28;20133;-50
2022/11/19 07:19:43;;;;;;;10.15;6.68;;;-1.70;99.90;;;;;;4939538;28;20061;-53
2022/11/19 07:22:09;;;;;;;10.07;6.47;;;-1.70;99.90;;;;;;4928487;28;20062;-51
2022/11/19 07:24:35;;;;;;;11.00;6.35;;;-1.70;99.90;;;;;;4927622;28;20158;-48
2022/11/19 07:27:01;;;;;;;13.35;6.47;;;-1.70;99.90;;;;;;4927240;28;20045;-51
2022/11/19 07:29:27;;;;;;;10.70;6.60;;;-1.70;99.90;;;;;;4925141;28;20059;-52
2022/11/19 07:31:52;;;;;;;9.98;7.00;;;-1.70;99.90;;;;;;4934649;28;20044;-52
2022/11/19 07:34:19;;;;;;;8.27;6.15;;;-1.70;99.90;;;;;;4935873;29;20051;-52
2022/11/19 07:36:46;;;;;;;9.38;6.65;;;-1.70;99.90;;;;;;4913242;29;20072;-54
2022/11/19 07:39:12;;;;;;;9.60;6.88;;;-1.70;99.90;;;;;;4913536;29;20514;-52
2022/11/19 07:44:22;;;;;;;13.07;7.32;;;-1.70;99.90;;;;;;4913518;29;20126;-53
2022/11/19 07:46:47;;;;;;;9.18;6.80;;;-1.80;99.90;;;;;;4915022;29;20059;-52
2022/11/19 07:49:13;;;;;;;9.48;6.30;;;-1.70;99.90;;;;;;4914198;29;20857;-51
2022/11/19 07:51:39;;;;;;;10.43;6.45;;;-1.70;99.90;;;;;;4916533;29;20044;-53
2022/11/19 07:54:05;;;;;;;11.13;7.07;;;-1.70;99.90;;;;;;4915995;29;20074;-54
2022/11/19 07:56:31;;;;;;;10.25;6.93;;;-1.70;99.90;;;;;;4908837;29;20048;-49
2022/11/19 07:59:00;;;;;;;9.45;7.05;;;-1.60;99.90;;;;;;4907831;29;20495;-51
2022/11/19 08:01:26;;;;;;;11.60;6.93;;;-1.60;99.90;;;;;;4907818;29;20051;-52
2022/11/19 08:03:53;;;;;;;12.25;7.05;;;-1.60;99.90;;;;;;4877300;29;20143;-52
2022/11/19 08:06:20;;;;;;;9.57;6.93;;;-1.60;99.90;;;;;;4908502;29;20409;-51
2022/11/19 08:08:46;;;;;;;9.32;6.03;;;-1.60;99.90;;;;;;4908340;29;20083;-52
2022/11/19 08:11:13;;;;;;;10.20;7.28;;;-1.60;99.90;;;;;;4905920;29;20127;-53
2022/11/19 08:13:40;;;;;;;8.90;6.60;;;-1.50;99.90;;;;;;4908252;29;20047;-53
2022/11/19 08:16:09;;;;;;;9.50;6.85;;;-1.50;99.90;;;;;;4908877;29;20106;-53
2022/11/19 08:18:35;;;;;;;9.98;6.55;;;-1.40;99.90;;;;;;4907577;29;20090;-50
2022/11/19 08:21:18;;;;;;;10.15;7.55;;;-1.40;99.90;;;;;;4915267;29;20071;-54
2022/11/19 08:23:45;;;;;;;10.23;6.82;;;-1.40;99.90;;;;;;4909176;29;20077;-52
2022/11/19 08:26:10;;;;;;;9.25;6.57;;;-1.30;99.90;;;;;;4915294;29;20039;-55
2022/11/19 08:28:36;;;;;;;9.00;6.75;;;-1.30;99.90;;;;;;4913940;29;20071;-52
2022/11/19 08:31:07;;;;;;;11.23;6.70;;;-1.30;99.90;;;;;;4910130;29;20047;-52
2022/11/19 08:33:33;;;;;;;9.02;6.35;;;-1.20;99.90;;;;;;4911164;29;20054;-54
2022/11/19 08:35:59;;;;;;;11.07;7.00;;;-1.10;99.90;;;;;;4903520;29;20060;-54
2022/11/19 08:38:25;;;;;;;9.07;6.88;;;-1.10;99.90;;;;;;4908115;29;20040;-54
2022/11/19 08:40:52;;;;;;;9.43;5.97;;;-1.00;99.90;;;;;;4905095;29;20044;-53
2022/11/19 08:43:18;;;;;;;10.90;7.20;;;-1.00;99.90;;;;;;4906160;29;20044;-52
2022/11/19 08:45:54;;;;;;;9.32;6.65;;;-0.90;99.90;;;;;;4903319;29;20102;-50
2022/11/19 08:48:20;;;;;;;9.68;6.55;;;-0.80;99.90;;;;;;4907609;29;20052;-53
2022/11/19 08:50:46;;;;;;;10.80;6.90;;;-0.80;99.90;;;;;;4906694;29;20071;-53
2022/11/19 08:53:12;;;;;;;9.77;6.57;;;-0.70;99.90;;;;;;4903714;29;20048;-53
2022/11/19 08:55:37;;;;;;;11.00;7.32;;;-0.70;99.90;;;;;;4899203;29;20487;-53
2022/11/19 08:58:07;;;;;;;11.25;7.05;;;-0.60;99.90;;;;;;4914988;29;20188;-53
2022/11/19 09:00:36;;;;;;;9.38;6.80;;;-0.60;99.90;;;;;;4905225;29;20044;-51
2022/11/19 09:03:02;;;;;;;10.80;7.30;;;-0.50;99.90;;;;;;4906672;29;20139;-51
2022/11/19 09:05:27;;;;;;;9.23;7.00;;;-0.40;99.90;;;;;;4888895;29;20048;-54
2022/11/19 09:07:54;;;;;;;10.32;7.35;;;-0.40;99.90;;;;;;4905318;29;20051;-53
2022/11/19 09:10:20;;;;;;;8.95;6.70;;;-0.30;99.90;;;;;;4906922;29;20079;-52
2022/11/19 09:12:46;;;;;;;8.73;7.18;;;-0.20;99.90;;;;;;4903127;29;20201;-52
2022/11/19 09:15:12;;;;;;;11.05;7.45;;;-0.10;99.90;;;;;;4902687;29;20055;-53
2022/11/19 09:17:38;;;;;;;9.27;6.93;;;0.00;99.90;;;;;;4875314;29;20054;-54
2022/11/19 09:20:04;;;;;;;11.30;7.63;;;0.00;99.90;;;;;;4901130;29;20055;-55
2022/11/19 09:22:30;;;;;;;10.27;7.25;;;0.10;99.90;;;;;;4907011;29;20077;-51
2022/11/19 09:24:56;;;;;;;10.82;7.35;;;0.20;99.90;;;;;;4907220;29;20100;-53
2022/11/19 09:27:22;;;;;;;9.65;7.03;;;0.30;99.90;;;;;;4909031;29;20044;-50
2022/11/19 09:29:47;;;;;;;11.45;7.30;;;0.40;99.90;;;;;;4910884;29;20509;-53
2022/11/19 09:32:14;;;;;;;10.18;6.68;;;0.50;99.90;;;;;;4912148;29;20127;-53
2022/11/19 09:34:40;;;;;;;9.43;6.30;;;0.50;99.90;;;;;;4902853;29;20059;-54
2022/11/19 09:37:09;;;;;;;9.88;6.85;;;0.60;99.90;;;;;;4913146;29;20173;-50
2022/11/19 09:39:35;;;;;;;10.15;6.95;;;0.70;99.90;;;;;;4912430;29;20114;-52
2022/11/19 09:42:13;;;;;;;9.05;6.75;;;0.80;99.90;;;;;;4908370;29;20510;-49
2022/11/19 09:44:55;;;;;;;12.38;7.22;;;0.80;99.90;;;;;;4911853;29;20090;-55
2022/11/19 09:47:38;;;;;;;9.10;6.72;;;0.90;99.90;;;;;;4907286;29;20127;-52
2022/11/19 09:50:18;;;;;;;9.27;6.37;;;1.00;99.90;;;;;;4908662;29;20558;-51
2022/11/19 09:52:56;;;;;;;8.95;6.50;;;1.10;99.90;;;;;;4911662;29;20304;-49
2022/11/19 09:55:35;;;;;;;9.65;7.05;;;1.10;99.90;;;;;;4914021;29;20052;-52
2022/11/19 09:58:06;;;;;;;9.32;6.40;;;1.30;99.90;;;;;;4916716;29;20537;-51
2022/11/19 10:00:32;;;;;;;9.80;6.60;;;1.30;99.90;;;;;;4916365;29;20111;-53
2022/11/19 10:03:01;;;;;;;10.13;6.53;;;1.40;99.90;;;;;;4912944;29;20499;-52
2022/11/19 10:05:47;;;;;;;9.07;6.68;;;1.60;99.90;;;;;;4910149;29;20166;-55
2022/11/19 10:08:33;;;;;;;9.90;6.50;;;1.70;99.90;;;;;;4917201;29;20043;-53
2022/11/19 10:11:38;;;;;;;9.57;6.95;;;1.80;99.90;;;;;;4911281;29;20043;-52
2022/11/19 10:14:34;;;;;;;9.02;6.53;;;2.00;99.90;;;;;;4874694;29;20044;-55
2022/11/19 10:17:25;;;;;;;8.38;6.10;;;2.10;99.90;;;;;;4911809;29;20086;-53
2022/11/19 10:20:36;;;;;;;8.05;6.10;;;2.20;99.90;;;;;;4911574;29;20075;-53
2022/11/19 10:23:16;;;;;;;8.80;6.38;;;2.40;99.90;;;;;;4916370;29;20044;-54
2022/11/19 10:25:48;;;;;;;8.63;6.20;;;2.60;99.90;;;;;;4917266;29;20119;-54
2022/11/19 10:28:21;;;;;;;7.53;5.80;;;2.70;99.90;;;;;;4911288;29;20075;-54
2022/11/19 10:30:50;;;;;;;8.23;6.15;;;2.80;99.90;;;;;;4914880;29;20041;-52
2022/11/19 10:33:37;;;;;;;8.25;5.88;;;2.90;99.90;;;;;;4910445;29;20043;-53
2022/11/19 10:36:17;;;;;;;8.75;6.00;;;3.10;99.90;;;;;;4915712;28;20055;-54
2022/11/19 10:39:02;;;;;;;6.82;5.35;;;3.10;99.90;;;;;;4929639;29;20056;-54
2022/11/19 10:41:32;;;;;;;8.15;6.15;;;3.30;99.90;;;;;;4928202;29;20054;-54
2022/11/19 10:44:05;;;;;;;16.48;7.55;;;3.30;99.90;;;;;;4927149;28;20082;-54
2022/11/19 10:46:31;;;;;;;10.38;6.20;;;3.40;99.90;;;;;;4932064;29;20081;-54
2022/11/19 10:48:58;;;;;;;9.00;6.05;;;3.50;99.90;;;;;;4933422;28;20177;-54
2022/11/19 10:51:54;;;;;;;30.77;11.05;;;3.60;99.90;;;;;;4930316;29;20044;-54
2022/11/19 10:54:26;;;;;;;37.67;11.60;;;3.70;99.90;;;;;;4930253;29;20051;-55
2022/11/19 10:56:54;;;;;;;7.68;5.50;;;3.70;99.90;;;;;;4928135;29;20047;-55
2022/11/19 10:59:26;;;;;;;8.63;5.70;;;3.70;99.90;;;;;;4933610;29;20102;-56
2022/11/19 11:02:00;;;;;;;6.28;4.97;;;3.70;99.90;;;;;;4929717;29;20047;-54
2022/11/19 11:04:28;;;;;;;9.95;5.45;;;3.80;99.90;;;;;;4931493;28;20078;-55
2022/11/19 11:06:59;;;;;;;11.40;5.40;;;3.80;99.90;;;;;;4933957;29;20074;-50
2022/11/19 11:09:28;;;;;;;7.78;5.43;;;3.70;99.90;;;;;;4931573;29;20046;-54
2022/11/19 11:14:53;;;;;;;7.57;5.43;;;3.60;99.90;;;;;;4932353;29;20075;-54
2022/11/19 11:17:24;;;;;;;7.47;5.72;;;3.60;99.90;;;;;;4930006;29;20101;-53
2022/11/19 11:20:05;;;;;;;7.50;5.57;;;3.70;99.90;;;;;;4913645;29;20058;-53
2022/11/19 11:22:32;;;;;;;7.95;5.38;;;3.70;99.90;;;;;;4932348;28;20129;-55
2022/11/19 11:24:59;;;;;;;7.13;5.13;;;3.70;99.90;;;;;;4932913;29;20134;-54
2022/11/19 11:27:32;;;;;;;8.45;5.88;;;3.80;99.90;;;;;;4935179;29;20039;-51
2022/11/19 11:30:04;;;;;;;;;;;3.90;99.90;;;;;;4934500;29;20059;-55
2022/11/19 11:32:31;;;;;;;8.57;5.47;;;3.90;99.90;;;;;;4936299;29;19996;-53
2022/11/19 11:34:57;;;;;;;6.78;4.78;;;3.90;99.90;;;;;;4929755;28;20052;-54
2022/11/19 11:37:26;;;;;;;8.77;5.20;;;3.90;99.90;;;;;;4894724;29;20048;-50
2022/11/19 11:39:54;;;;;;;6.70;4.60;;;3.80;99.90;;;;;;4913707;29;20139;-55
2022/11/19 11:42:23;;;;;;;7.05;4.95;;;3.80;99.90;;;;;;4908653;29;20048;-55
2022/11/19 11:44:59;;;;;;;6.85;4.57;;;3.80;99.90;;;;;;4906996;29;20043;-55
2022/11/19 11:47:34;;;;;;;6.25;4.50;;;3.70;99.90;;;;;;4909906;29;20062;-52
2022/11/19 11:50:07;;;;;;;5.88;4.38;;;3.70;99.90;;;;;;4908430;29;20612;-55
2022/11/19 11:52:42;;;;;;;5.65;4.47;;;3.60;99.90;;;;;;4909748;29;20327;-52
2022/11/19 11:55:23;;;;;;;5.78;4.35;;;3.60;99.90;;;;;;4909942;29;20044;-55
2022/11/19 11:57:56;;;;;;;7.05;5.07;;;3.50;99.90;;;;;;4907876;29;20052;-56
2022/11/19 12:00:51;;;;;;;7.07;4.45;;;3.50;99.90;;;;;;4908612;29;20420;-55
2022/11/19 12:03:18;;;;;;;6.45;4.45;;;3.40;99.90;;;;;;4906850;29;24219;-55
2022/11/19 12:06:11;;;;;;;7.72;4.55;;;3.40;99.90;;;;;;4912567;29;20039;-55
2022/11/19 12:08:49;;;;;;;6.25;4.18;;;3.40;99.90;;;;;;4914061;29;20075;-55
2022/11/19 12:11:23;;;;;;;5.78;4.60;;;3.40;99.90;;;;;;4913542;29;20049;-54
2022/11/19 12:14:08;;;;;;;6.22;4.70;;;3.40;99.90;;;;;;4897832;29;20048;-54
2022/11/19 12:16:53;;;;;;;6.45;4.38;;;3.50;99.90;;;;;;4909097;29;20044;-53
2022/11/19 12:19:56;;;;;;;6.95;4.30;;;3.60;99.90;;;;;;4912741;29;20050;-55
2022/11/19 12:22:56;;;;;;;7.75;4.22;;;3.60;99.90;;;;;;4895304;29;20082;-53
2022/11/19 12:25:26;;;;;;;5.82;4.10;;;3.80;99.90;;;;;;4909462;29;20052;-55
2022/11/19 12:28:22;;;;;;;5.78;4.10;;;3.80;99.90;;;;;;4914301;29;20051;-54
2022/11/19 12:30:50;;;;;;;6.55;3.92;;;4.00;99.90;;;;;;4910737;29;20047;-55
2022/11/19 12:33:49;;;;;;;7.13;4.22;;;4.00;99.90;;;;;;4910529;29;20048;-55
2022/11/19 12:36:27;;;;;;;8.75;4.40;;;4.10;99.90;;;;;;4920755;28;20051;-55
2022/11/19 12:39:26;;;;;;;6.10;4.43;;;4.30;99.90;;;;;;4934067;29;20051;-55
2022/11/19 12:42:07;;;;;;;6.70;3.95;;;4.40;99.90;;;;;;4930300;29;20857;-54
2022/11/19 12:44:42;;;;;;;5.68;4.28;;;4.60;99.90;;;;;;4928861;28;20051;-52
2022/11/19 12:47:30;;;;;;;5.35;3.80;;;4.70;99.90;;;;;;4932814;29;20099;-55
2022/11/19 12:50:17;;;;;;;7.97;4.22;;;4.80;99.90;;;;;;4935242;29;20098;-56
2022/11/19 12:52:57;;;;;;;5.20;4.30;;;5.00;99.90;;;;;;4931856;28;20071;-55
2022/11/19 12:55:55;;;;;;;6.85;4.35;;;5.20;99.90;;;;;;4924907;29;20475;-55
2022/11/19 12:58:36;;;;;;;5.28;4.03;;;5.40;99.90;;;;;;4904102;28;20134;-55
2022/11/19 13:01:11;;;;;;;7.43;4.55;;;5.50;99.90;;;;;;4933150;29;20059;-55
2022/11/19 13:04:10;;;;;;;6.32;4.35;;;5.50;99.90;;;;;;4930573;29;21045;-54
2022/11/19 13:06:58;;;;;;;5.15;4.22;;;5.50;99.90;;;;;;4929812;29;20058;-54
2022/11/19 13:09:49;;;;;;;4.85;4.22;;;5.70;99.90;;;;;;4931151;28;20077;-55
2022/11/19 13:12:20;;;;;;;6.45;4.70;;;5.80;99.90;;;;;;4930765;29;20058;-55
2022/11/19 13:14:52;;;;;;;6.18;4.28;;;5.80;99.90;;;;;;4926831;29;20106;-56
2022/11/19 13:17:33;;;;;;;6.40;4.77;;;5.70;99.90;;;;;;4932199;29;20681;-53
2022/11/19 13:20:17;;;;;;;5.57;4.10;;;5.60;99.90;;;;;;4929464;29;20700;-54
2022/11/19 13:22:46;;;;;;;5.55;4.40;;;5.50;99.90;;;;;;4929984;29;20044;-55
2022/11/19 13:25:25;;;;;;;7.75;4.30;;;5.40;99.90;;;;;;4934689;29;20560;-55
2022/11/19 13:27:54;;;;;;;4.70;4.13;;;5.20;99.90;;;;;;4928500;28;20076;-56
2022/11/19 13:30:25;;;;;;;5.68;4.53;;;5.10;99.90;;;;;;4933922;29;20819;-54